createdAt,value
2017-06-27T00:01:23.188Z,13.20
2017-06-27T00:03:49.487Z,13.40
2017-06-27T00:06:16.494Z,13.50
2017-06-27T00:08:42.794Z,13.40
2017-06-27T00:11:09.057Z,13.40
2017-06-27T00:13:35.341Z,13.40
2017-06-27T00:16:01.613Z,13.30
2017-06-27T00:18:28.662Z,13.30
2017-06-27T00:20:54.946Z,13.20
2017-06-27T00:23:21.266Z,13.20
2017-06-27T00:25:47.562Z,13.10
2017-06-27T00:28:14.606Z,13.00
2017-06-27T00:30:41.646Z,12.70
2017-06-27T00:33:07.954Z,12.70
2017-06-27T00:35:34.241Z,12.80
2017-06-27T00:38:00.523Z,13.00
2017-06-27T00:40:26.827Z,13.30
2017-06-27T00:42:53.102Z,13.20
2017-06-27T00:45:20.149Z,13.60
2017-06-27T00:47:46.433Z,13.60
2017-06-27T00:50:12.719Z,13.40
2017-06-27T00:52:39.754Z,13.60
2017-06-27T00:55:06.014Z,13.60
2017-06-27T00:57:32.312Z,13.80
2017-06-27T00:59:58.581Z,13.70
2017-06-27T01:02:24.873Z,13.70
2017-06-27T01:04:51.893Z,13.20
2017-06-27T01:07:18.173Z,13.10
2017-06-27T01:09:45.186Z,13.50
2017-06-27T01:12:11.766Z,13.40
2017-06-27T01:14:38.045Z,13.10
2017-06-27T01:17:04.339Z,13.10
2017-06-27T01:19:30.615Z,13.20
2017-06-27T01:21:57.654Z,13.50
2017-06-27T01:24:23.934Z,13.50
2017-06-27T01:26:50.201Z,13.10
2017-06-27T01:29:16.491Z,13.00
2017-06-27T01:31:42.794Z,12.80
2017-06-27T01:34:09.905Z,12.80
2017-06-27T01:36:36.232Z,12.80
2017-06-27T01:39:02.545Z,12.80
2017-06-27T01:41:28.842Z,12.70
2017-06-27T01:43:55.892Z,12.70
2017-06-27T01:46:22.215Z,12.70
2017-06-27T01:48:48.522Z,12.90
2017-06-27T01:51:15.607Z,12.60
2017-06-27T01:53:41.911Z,12.60
2017-06-27T01:56:08.975Z,13.00
2017-06-27T01:58:35.265Z,13.00
2017-06-27T02:01:01.551Z,12.70
2017-06-27T02:03:27.848Z,12.50
2017-06-27T02:05:54.375Z,12.70
2017-06-27T02:08:20.649Z,12.20
2017-06-27T02:10:47.018Z,12.50
2017-06-27T02:13:13.322Z,12.60
2017-06-27T02:15:39.619Z,12.50
2017-06-27T02:18:05.912Z,12.40
2017-06-27T02:20:32.179Z,12.30
2017-06-27T02:22:59.194Z,12.40
2017-06-27T02:25:25.478Z,12.30
2017-06-27T02:27:51.782Z,12.20
2017-06-27T02:30:18.083Z,12.10
2017-06-27T02:32:44.350Z,12.20
2017-06-27T02:35:10.632Z,11.90
2017-06-27T02:37:36.923Z,12.10
2017-06-27T02:40:03.229Z,12.00
2017-06-27T02:42:30.243Z,12.10
2017-06-27T02:44:56.535Z,12.10
2017-06-27T02:47:22.826Z,12.10
2017-06-27T02:49:49.850Z,12.10
2017-06-27T02:52:16.129Z,12.10
2017-06-27T02:54:43.173Z,12.10
2017-06-27T02:57:09.455Z,11.90
2017-06-27T02:59:35.727Z,11.90
2017-06-27T03:02:02.000Z,11.90
2017-06-27T03:04:28.295Z,11.90
2017-06-27T03:06:54.601Z,11.50
2017-06-27T03:09:21.639Z,11.10
2017-06-27T03:11:48.670Z,11.10
2017-06-27T03:14:15.730Z,11.30
2017-06-27T03:16:42.750Z,11.50
2017-06-27T03:19:09.017Z,11.40
2017-06-27T03:21:35.307Z,11.60
2017-06-27T03:24:01.592Z,11.70
2017-06-27T03:26:27.879Z,11.70
2017-06-27T03:28:54.164Z,11.80
2017-06-27T03:31:20.439Z,12.00
2017-06-27T03:33:46.721Z,11.90
2017-06-27T03:36:13.017Z,12.00
2017-06-27T03:38:39.312Z,12.00
2017-06-27T03:41:05.585Z,12.10
2017-06-27T03:43:32.611Z,12.00
2017-06-27T03:45:58.897Z,12.00
2017-06-27T03:48:25.175Z,11.90
2017-06-27T03:50:52.197Z,12.00
2017-06-27T03:53:18.478Z,11.90
2017-06-27T03:55:44.769Z,11.90
2017-06-27T03:58:11.826Z,11.70
2017-06-27T04:00:38.837Z,11.70
2017-06-27T04:03:05.148Z,11.70
2017-06-27T04:05:31.422Z,11.90
2017-06-27T04:07:57.707Z,11.70
2017-06-27T04:10:23.976Z,11.90
2017-06-27T04:12:50.267Z,12.00
2017-06-27T04:15:16.539Z,12.00
2017-06-27T04:17:42.830Z,12.00
2017-06-27T04:20:09.094Z,11.90
2017-06-27T04:22:36.116Z,11.90
2017-06-27T04:25:02.402Z,11.80
2017-06-27T04:27:28.676Z,11.90
2017-06-27T04:29:54.940Z,12.00
2017-06-27T04:32:21.978Z,12.10
2017-06-27T04:34:49.033Z,12.40
2017-06-27T04:37:15.329Z,12.30
2017-06-27T04:39:41.633Z,12.30
2017-06-27T04:42:07.908Z,12.20
2017-06-27T04:44:34.228Z,12.20
2017-06-27T04:47:00.480Z,12.20
2017-06-27T04:49:26.887Z,12.30
2017-06-27T04:51:53.158Z,12.30
2017-06-27T04:54:20.174Z,12.40
2017-06-27T04:56:46.447Z,12.40
2017-06-27T04:59:12.726Z,12.40
2017-06-27T05:01:38.989Z,12.60
2017-06-27T05:04:05.258Z,12.90
2017-06-27T05:06:32.378Z,12.90
2017-06-27T05:08:58.647Z,12.90
2017-06-27T05:11:24.913Z,12.90
2017-06-27T05:13:51.204Z,12.80
2017-06-27T05:16:17.485Z,12.80
2017-06-27T05:18:43.787Z,12.90
2017-06-27T05:21:10.813Z,13.10
2017-06-27T05:23:37.081Z,13.10
2017-06-27T05:26:04.088Z,13.00
2017-06-27T05:28:30.384Z,12.90
2017-06-27T05:30:56.672Z,13.00
2017-06-27T05:33:22.976Z,13.30
2017-06-27T05:35:49.241Z,13.20
2017-06-27T05:38:15.555Z,13.10
2017-06-27T05:40:41.818Z,13.30
2017-06-27T05:43:08.114Z,13.20
2017-06-27T05:45:34.389Z,13.50
2017-06-27T05:48:00.657Z,13.50
2017-06-27T05:50:26.931Z,13.80
2017-06-27T05:52:53.218Z,13.60
2017-06-27T05:55:19.499Z,13.70
2017-06-27T05:57:45.763Z,13.80
2017-06-27T06:00:12.049Z,14.00
2017-06-27T06:02:38.339Z,14.00
2017-06-27T06:05:04.626Z,13.90
2017-06-27T06:07:30.950Z,14.00
2017-06-27T06:09:57.263Z,13.90
2017-06-27T06:12:23.571Z,13.90
2017-06-27T06:14:49.833Z,13.90
2017-06-27T06:17:16.123Z,14.10
2017-06-27T06:19:42.371Z,14.00
2017-06-27T06:22:09.395Z,14.10
2017-06-27T06:24:35.676Z,14.10
2017-06-27T06:27:01.973Z,14.00
2017-06-27T06:29:28.996Z,13.90
2017-06-27T06:31:55.257Z,13.80
2017-06-27T06:34:21.535Z,14.00
2017-06-27T06:36:47.815Z,14.10
2017-06-27T06:39:14.854Z,14.50
2017-06-27T06:41:41.163Z,14.50
2017-06-27T06:44:07.484Z,14.60
2017-06-27T06:46:33.788Z,14.50
2017-06-27T06:49:07.037Z,14.40
2017-06-27T06:51:34.256Z,14.60
2017-06-27T06:54:00.588Z,14.50
2017-06-27T06:56:27.630Z,14.50
2017-06-27T06:58:53.974Z,14.50
2017-06-27T07:01:21.009Z,14.70
2017-06-27T07:03:47.327Z,14.70
2017-06-27T07:06:13.619Z,14.90
2017-06-27T07:08:39.902Z,15.00
2017-06-27T07:11:06.186Z,15.10
2017-06-27T07:13:33.116Z,15.20
2017-06-27T07:15:59.421Z,14.90
2017-06-27T07:18:26.433Z,14.70
2017-06-27T07:20:52.731Z,14.60
2017-06-27T07:23:19.031Z,14.80
2017-06-27T07:25:46.061Z,15.20
2017-06-27T07:28:12.317Z,15.10
2017-06-27T07:30:39.336Z,15.30
2017-06-27T07:33:06.370Z,15.10
2017-06-27T07:35:32.639Z,15.00
2017-06-27T07:37:59.660Z,15.10
2017-06-27T07:40:25.953Z,15.00
2017-06-27T07:42:52.254Z,15.10
2017-06-27T07:45:18.524Z,15.20
2017-06-27T07:47:44.796Z,15.60
2017-06-27T07:50:11.818Z,15.50
2017-06-27T07:52:38.115Z,15.50
2017-06-27T07:55:04.387Z,15.60
2017-06-27T07:57:30.641Z,15.70
2017-06-27T07:59:56.958Z,15.80
2017-06-27T08:02:23.971Z,15.90
2017-06-27T08:04:50.274Z,15.90
2017-06-27T08:07:16.573Z,16.30
2017-06-27T08:09:42.893Z,16.40
2017-06-27T08:12:09.911Z,16.20
2017-06-27T08:14:36.183Z,16.20
2017-06-27T08:17:02.471Z,16.50
2017-06-27T08:19:28.817Z,16.30
2017-06-27T08:21:55.978Z,16.10
2017-06-27T08:24:22.241Z,16.10
2017-06-27T08:26:48.506Z,16.30
2017-06-27T08:29:14.806Z,16.30
2017-06-27T08:31:41.139Z,16.40
2017-06-27T08:34:14.389Z,16.60
2017-06-27T08:36:41.461Z,16.70
2017-06-27T08:39:08.567Z,16.70
2017-06-27T08:41:35.619Z,16.60
2017-06-27T08:44:01.906Z,16.60
2017-06-27T08:46:28.455Z,16.90
2017-06-27T08:48:55.811Z,16.80
2017-06-27T08:51:22.855Z,16.80
2017-06-27T08:53:49.798Z,17.00
2017-06-27T08:56:16.853Z,17.40
2017-06-27T08:58:43.133Z,17.40
2017-06-27T09:01:10.150Z,17.40
2017-06-27T09:03:36.422Z,17.30
2017-06-27T09:06:02.702Z,17.10
2017-06-27T09:08:29.008Z,16.90
2017-06-27T09:10:55.945Z,16.70
2017-06-27T09:13:22.259Z,16.70
2017-06-27T09:15:48.545Z,16.80
2017-06-27T09:18:15.561Z,17.00
2017-06-27T09:20:41.846Z,17.00
2017-06-27T09:23:08.129Z,17.10
2017-06-27T09:25:34.415Z,17.10
2017-06-27T09:28:00.677Z,17.20
2017-06-27T09:30:26.962Z,17.40
2017-06-27T09:32:53.962Z,17.40
2017-06-27T09:35:20.222Z,17.30
2017-06-27T09:37:47.284Z,17.60
2017-06-27T09:40:14.331Z,17.70
2017-06-27T09:42:41.335Z,17.40
2017-06-27T09:45:07.608Z,17.30
2017-06-27T09:47:34.626Z,17.20
2017-06-27T09:50:01.653Z,17.60
2017-06-27T09:52:27.950Z,17.50
2017-06-27T09:54:54.222Z,17.60
2017-06-27T09:57:21.495Z,17.80
2017-06-27T09:59:48.530Z,17.90
2017-06-27T10:02:15.650Z,17.90
2017-06-27T10:04:41.936Z,17.80
2017-06-27T10:07:08.249Z,17.80
2017-06-27T10:09:34.507Z,18.00
2017-06-27T10:12:00.774Z,17.90
2017-06-27T10:14:27.057Z,17.80
2017-06-27T10:16:54.843Z,17.80
2017-06-27T10:19:21.132Z,17.80
2017-06-27T10:21:48.141Z,17.60
2017-06-27T10:24:14.435Z,17.60
2017-06-27T10:26:40.692Z,17.60
2017-06-27T10:29:06.985Z,17.70
2017-06-27T10:31:33.262Z,17.70
2017-06-27T10:33:59.551Z,17.90
2017-06-27T10:36:25.826Z,18.00
2017-06-27T10:38:52.106Z,17.90
2017-06-27T10:41:18.392Z,18.00
2017-06-27T10:43:44.684Z,18.50
2017-06-27T10:46:10.988Z,18.40
2017-06-27T10:48:37.261Z,18.40
2017-06-27T10:51:03.562Z,18.40
2017-06-27T10:53:29.876Z,18.20
2017-06-27T10:55:56.224Z,18.30
2017-06-27T10:58:22.506Z,18.60
2017-06-27T11:00:49.539Z,18.70
2017-06-27T11:03:15.821Z,18.60
2017-06-27T11:05:42.100Z,18.50
2017-06-27T11:08:08.371Z,18.80
2017-06-27T11:10:34.655Z,18.70
2017-06-27T11:13:00.929Z,18.80
2017-06-27T11:15:27.190Z,18.80
2017-06-27T11:17:53.489Z,19.00
2017-06-27T11:20:19.751Z,19.20
2017-06-27T11:22:46.019Z,19.30
2017-06-27T11:25:12.319Z,19.50
2017-06-27T11:27:38.586Z,19.50
2017-06-27T11:30:05.629Z,19.30
2017-06-27T11:32:31.909Z,19.30
2017-06-27T11:34:58.180Z,19.20
2017-06-27T11:37:24.451Z,19.40
2017-06-27T11:39:50.724Z,19.20
2017-06-27T11:42:17.005Z,19.30
2017-06-27T11:44:43.266Z,19.50
2017-06-27T11:47:09.542Z,19.20
2017-06-27T11:49:36.588Z,19.40
2017-06-27T11:52:02.895Z,19.30
2017-06-27T11:54:29.173Z,19.50
2017-06-27T11:56:55.471Z,19.40
2017-06-27T11:59:22.499Z,19.70
2017-06-27T12:02:02.006Z,19.60
2017-06-27T12:04:31.120Z,19.50
2017-06-27T12:06:57.378Z,19.70
2017-06-27T12:09:28.781Z,19.90
2017-06-27T12:11:55.105Z,19.90
2017-06-27T12:14:21.364Z,19.80
2017-06-27T12:16:47.641Z,19.90
2017-06-27T12:19:13.939Z,20.00
2017-06-27T12:21:40.974Z,20.20
2017-06-27T12:24:07.237Z,20.20
2017-06-27T12:26:33.519Z,20.50
2017-06-27T12:28:59.786Z,20.50
2017-06-27T12:31:26.791Z,20.80
2017-06-27T12:33:53.174Z,20.70
2017-06-27T12:36:19.464Z,20.60
2017-06-27T12:38:45.727Z,20.90
2017-06-27T12:41:12.731Z,21.10
2017-06-27T12:43:39.020Z,21.10
2017-06-27T12:46:05.302Z,21.40
2017-06-27T12:48:32.328Z,21.50
2017-06-27T12:50:58.630Z,21.40
2017-06-27T12:53:24.907Z,21.40
2017-06-27T12:55:51.179Z,21.40
2017-06-27T12:58:17.466Z,21.50
2017-06-27T13:00:43.741Z,21.70
2017-06-27T13:03:10.029Z,21.90
2017-06-27T13:05:36.304Z,21.40
2017-06-27T13:08:02.587Z,21.50
2017-06-27T13:10:28.876Z,21.60
2017-06-27T13:12:55.138Z,21.50
2017-06-27T13:15:21.417Z,21.50
2017-06-27T13:17:47.689Z,22.10
2017-06-27T13:20:13.953Z,22.50
2017-06-27T13:22:40.249Z,22.40
2017-06-27T13:25:06.748Z,22.30
2017-06-27T13:27:33.034Z,21.80
2017-06-27T13:29:59.587Z,21.70
2017-06-27T13:32:25.884Z,21.90
2017-06-27T13:34:52.307Z,22.00
2017-06-27T13:37:18.577Z,22.30
2017-06-27T13:39:44.865Z,22.60
2017-06-27T13:42:11.142Z,22.90
2017-06-27T13:44:37.426Z,23.10
2017-06-27T13:47:03.701Z,23.10
2017-06-27T13:49:29.988Z,23.30
2017-06-27T13:51:56.264Z,23.60
2017-06-27T13:54:22.544Z,23.40
2017-06-27T13:56:48.837Z,23.00
2017-06-27T13:59:15.102Z,22.90
2017-06-27T14:01:41.398Z,23.10
2017-06-27T14:04:08.443Z,23.60
2017-06-27T14:06:34.722Z,24.00
2017-06-27T14:09:01.773Z,23.40
2017-06-27T14:11:28.063Z,23.30
2017-06-27T14:13:54.367Z,23.10
2017-06-27T14:16:20.639Z,22.90
2017-06-27T14:18:46.926Z,23.40
2017-06-27T14:21:13.183Z,23.60
2017-06-27T14:23:39.456Z,23.70
2017-06-27T14:26:06.478Z,24.50
2017-06-27T14:28:32.764Z,24.50
2017-06-27T14:30:59.014Z,24.70
2017-06-27T14:33:25.271Z,24.50
2017-06-27T14:35:51.543Z,24.50
2017-06-27T14:38:17.816Z,24.70
2017-06-27T14:40:44.082Z,25.50
2017-06-27T14:43:10.381Z,26.00
2017-06-27T14:45:36.644Z,25.70
2017-06-27T14:48:02.920Z,25.20
2017-06-27T14:50:29.195Z,24.70
2017-06-27T14:52:55.481Z,24.90
2017-06-27T14:55:21.772Z,25.20
2017-06-27T14:57:48.053Z,25.20
2017-06-27T15:00:14.322Z,24.90
2017-06-27T15:02:42.332Z,25.20
2017-06-27T15:05:10.405Z,25.40
2017-06-27T15:07:37.961Z,25.50
2017-06-27T15:10:05.679Z,25.00
2017-06-27T15:12:32.699Z,25.00
2017-06-27T15:14:59.678Z,24.60
2017-06-27T15:17:25.969Z,25.00
2017-06-27T15:19:52.334Z,25.40
2017-06-27T15:22:18.633Z,25.80
2017-06-27T15:24:47.699Z,28.00
2017-06-27T15:27:14.235Z,28.00
2017-06-27T15:29:40.517Z,27.80
2017-06-27T15:32:07.524Z,28.30
2017-06-27T15:34:34.330Z,28.30
2017-06-27T15:37:00.617Z,28.40
2017-06-27T15:39:27.658Z,26.30
2017-06-27T15:41:54.713Z,26.90
2017-06-27T15:44:21.000Z,26.80
2017-06-27T15:46:47.320Z,26.60
2017-06-27T15:49:13.615Z,26.10
2017-06-27T15:51:39.905Z,25.80
2017-06-27T15:54:06.211Z,25.30
2017-06-27T15:56:32.512Z,25.10
2017-06-27T15:58:58.813Z,25.10
2017-06-27T16:01:25.089Z,26.20
2017-06-27T16:03:52.194Z,26.90
2017-06-27T16:06:19.210Z,27.70
2017-06-27T16:08:45.506Z,27.60
2017-06-27T16:11:11.788Z,28.40
2017-06-27T16:13:38.835Z,28.70
2017-06-27T16:16:05.138Z,28.60
2017-06-27T16:18:31.445Z,27.90
2017-06-27T16:20:57.740Z,27.90
2017-06-27T16:23:24.757Z,27.40
2017-06-27T16:25:51.045Z,27.40
2017-06-27T16:28:17.310Z,26.90
2017-06-27T16:30:43.612Z,27.30
2017-06-27T16:33:09.886Z,27.70
2017-06-27T16:35:36.183Z,29.00
2017-06-27T16:38:02.487Z,30.50
2017-06-27T16:40:28.776Z,30.20
2017-06-27T16:42:55.070Z,28.50
2017-06-27T16:45:21.381Z,27.20
2017-06-27T16:47:47.670Z,26.00
2017-06-27T16:50:14.732Z,25.10
2017-06-27T16:52:41.751Z,24.60
2017-06-27T16:55:08.068Z,24.50
2017-06-27T16:57:34.344Z,24.30
2017-06-27T17:00:01.361Z,24.40
2017-06-27T17:02:27.662Z,24.30
2017-06-27T17:04:53.956Z,24.50
2017-06-27T17:07:20.236Z,24.80
2017-06-27T17:09:46.558Z,25.00
2017-06-27T17:12:12.890Z,25.10
2017-06-27T17:14:39.187Z,24.60
2017-06-27T17:17:05.453Z,24.40
2017-06-27T17:19:31.743Z,24.90
2017-06-27T17:21:58.017Z,25.10
2017-06-27T17:24:24.328Z,25.00
2017-06-27T17:26:50.608Z,25.20
2017-06-27T17:29:16.891Z,24.50
2017-06-27T17:31:43.151Z,23.90
2017-06-27T17:34:09.437Z,23.60
2017-06-27T17:36:35.700Z,23.50
2017-06-27T17:39:02.026Z,23.30
2017-06-27T17:41:29.109Z,23.30
2017-06-27T17:43:56.119Z,23.20
2017-06-27T17:46:22.409Z,23.10
2017-06-27T17:48:48.715Z,22.90
2017-06-27T17:51:15.005Z,22.60
2017-06-27T17:53:41.298Z,22.60
2017-06-27T17:56:07.577Z,22.20
2017-06-27T17:58:33.898Z,21.80
2017-06-27T18:01:00.284Z,21.90
2017-06-27T18:03:26.569Z,21.90
2017-06-27T18:05:52.908Z,22.10
2017-06-27T18:08:19.238Z,21.90
2017-06-27T18:10:46.272Z,21.80
2017-06-27T18:13:12.565Z,21.80
2017-06-27T18:15:38.874Z,21.70
2017-06-27T18:18:05.189Z,21.80
2017-06-27T18:20:31.496Z,21.60
2017-06-27T18:22:57.769Z,21.50
2017-06-27T18:25:24.069Z,21.50
2017-06-27T18:27:50.416Z,21.40
2017-06-27T18:30:16.726Z,21.20
2017-06-27T18:32:43.049Z,21.30
2017-06-27T18:35:10.092Z,21.10
2017-06-27T18:37:37.133Z,21.10
2017-06-27T18:40:03.485Z,21.10
2017-06-27T18:42:29.780Z,21.10
2017-06-27T18:44:56.147Z,21.20
2017-06-27T18:47:22.601Z,21.20
2017-06-27T18:49:49.038Z,21.20
2017-06-27T18:52:15.455Z,21.20
2017-06-27T18:54:41.888Z,21.00
2017-06-27T18:57:08.360Z,20.70
2017-06-27T18:59:34.705Z,20.80
2017-06-27T19:02:01.877Z,20.80
2017-06-27T19:04:28.490Z,20.70
2017-06-27T19:06:54.912Z,20.60
2017-06-27T19:09:21.469Z,20.60
2017-06-27T19:11:47.953Z,20.70
2017-06-27T19:14:14.555Z,20.50
2017-06-27T19:16:41.057Z,20.30
2017-06-27T19:19:07.481Z,20.40
2017-06-27T19:21:34.047Z,20.40
2017-06-27T19:24:01.197Z,20.40
2017-06-27T19:26:28.368Z,20.30
2017-06-27T19:28:54.977Z,20.30
2017-06-27T19:31:21.418Z,20.00
2017-06-27T19:33:48.549Z,20.00
2017-06-27T19:36:14.924Z,19.90
2017-06-27T19:38:41.427Z,20.10
2017-06-27T19:41:07.920Z,20.00
2017-06-27T19:43:34.440Z,20.00
2017-06-27T19:46:00.886Z,20.00
2017-06-27T19:48:27.274Z,20.00
2017-06-27T19:50:53.708Z,20.10
2017-06-27T19:53:20.029Z,19.90
2017-06-27T19:55:46.329Z,19.80
2017-06-27T19:58:12.599Z,19.80
2017-06-27T20:00:39.647Z,19.80
2017-06-27T20:03:05.913Z,19.70
2017-06-27T20:05:32.188Z,19.80
2017-06-27T20:07:58.465Z,19.80
2017-06-27T20:10:24.748Z,19.70
2017-06-27T20:12:51.091Z,19.40
2017-06-27T20:15:17.362Z,19.20
2017-06-27T20:17:43.636Z,19.20
2017-06-27T20:20:10.031Z,19.20
2017-06-27T20:22:36.300Z,19.10
2017-06-27T20:25:02.574Z,19.10
2017-06-27T20:27:28.936Z,19.00
2017-06-27T20:29:55.185Z,19.10
2017-06-27T20:32:21.529Z,19.10
2017-06-27T20:34:47.885Z,19.20
2017-06-27T20:37:14.971Z,19.20
2017-06-27T20:39:41.238Z,19.10
2017-06-27T20:42:07.638Z,19.10
2017-06-27T20:44:33.954Z,19.10
2017-06-27T20:47:00.411Z,18.90
2017-06-27T20:49:27.510Z,18.80
2017-06-27T20:51:53.780Z,18.80
2017-06-27T20:54:20.039Z,18.70
2017-06-27T20:56:46.637Z,18.70
2017-06-27T20:59:12.953Z,18.80
2017-06-27T21:01:39.266Z,18.70
2017-06-27T21:04:05.536Z,18.60
2017-06-27T21:06:31.864Z,18.50
2017-06-27T21:08:58.141Z,18.60
2017-06-27T21:11:25.154Z,18.50
2017-06-27T21:13:51.545Z,18.50
2017-06-27T21:16:17.864Z,18.50
2017-06-27T21:18:44.140Z,18.50
2017-06-27T21:21:11.280Z,18.40
2017-06-27T21:23:37.537Z,18.40
2017-06-27T21:26:03.777Z,18.40
2017-06-27T21:28:30.879Z,18.20
2017-06-27T21:30:57.195Z,18.20
2017-06-27T21:33:23.440Z,18.20
2017-06-27T21:35:49.709Z,18.20
2017-06-27T21:38:16.725Z,18.10
2017-06-27T21:40:42.987Z,18.10
2017-06-27T21:43:09.995Z,18.20
2017-06-27T21:45:36.335Z,18.10
2017-06-27T21:48:02.584Z,18.10
2017-06-27T21:50:29.609Z,18.10
2017-06-27T21:52:55.866Z,18.00
2017-06-27T21:55:22.901Z,17.70
2017-06-27T21:57:49.189Z,17.70
2017-06-27T22:00:15.444Z,17.80
2017-06-27T22:02:41.734Z,17.90
2017-06-27T22:05:07.990Z,17.90
2017-06-27T22:07:34.261Z,17.70
2017-06-27T22:10:01.249Z,17.90
2017-06-27T22:12:27.521Z,17.80
2017-06-27T22:14:53.793Z,17.70
2017-06-27T22:17:20.073Z,17.70
2017-06-27T22:19:46.324Z,17.70
2017-06-27T22:22:12.616Z,17.70
2017-06-27T22:24:38.863Z,17.80
2017-06-27T22:27:05.163Z,17.90
2017-06-27T22:29:31.424Z,17.80
2017-06-27T22:31:57.698Z,17.70
2017-06-27T22:34:23.967Z,17.70
2017-06-27T22:36:50.228Z,17.70
2017-06-27T22:39:17.241Z,17.60
2017-06-27T22:41:43.590Z,17.50
2017-06-27T22:44:09.967Z,17.80
2017-06-27T22:46:36.252Z,17.60
2017-06-27T22:49:02.524Z,17.70
2017-06-27T22:51:28.794Z,17.70
2017-06-27T22:53:55.060Z,17.60
2017-06-27T22:56:22.239Z,17.80
2017-06-27T22:58:48.587Z,17.70
2017-06-27T23:01:14.856Z,17.70
2017-06-27T23:03:42.420Z,17.60
2017-06-27T23:06:09.464Z,17.50
2017-06-27T23:08:36.490Z,17.60
2017-06-27T23:11:02.785Z,17.60
2017-06-27T23:13:29.055Z,17.40
2017-06-27T23:15:55.309Z,17.50
2017-06-27T23:18:21.602Z,17.60
2017-06-27T23:20:47.866Z,17.40
2017-06-27T23:23:14.154Z,17.40
2017-06-27T23:25:40.467Z,17.50
2017-06-27T23:28:06.761Z,17.60
2017-06-27T23:30:33.040Z,17.60
2017-06-27T23:32:59.316Z,17.40
2017-06-27T23:35:25.586Z,17.50
2017-06-27T23:37:52.695Z,17.60
2017-06-27T23:40:18.967Z,17.50
2017-06-27T23:42:45.248Z,17.50
2017-06-27T23:45:12.250Z,17.40
2017-06-27T23:47:38.552Z,17.40
2017-06-27T23:50:04.821Z,17.30
2017-06-27T23:52:31.107Z,17.30
2017-06-27T23:54:57.377Z,17.30
2017-06-27T23:57:23.727Z,17.20
2017-06-27T23:59:50.762Z,17.30
